メインページ
METAR-TAF:

METAR-TAF

空港 :

重慶江北国際空港

重慶, 中華人民共和国

緯度: 29-31N, 経度: 106-29E, 海抜: 351m

現時点の気象観測

当レポートは1時間11分前の01:00(UTC)に作成
南/南東の風 4kt
気温 8°C
湿度 87%
気圧 1029 hPa
視程: 3500m
高度1400ftの雲はほとんどない
高度3300ftの雲は散在している

METAR: ZUCK 150100Z 15002MPS 3500 BR FEW014 SCT033 08/06 Q1029 NOSIG

時間: 10:11 (02:11 UTC)

予報

当レポートは7時間1分前の19:10(UTC)に作成
予報は15日の 00時(UTC)から 15日の 24時(UTC)まで有効
北/北東の風 6kt
視程: 5000m
高度5000ftの曇り

TAF: ZUCK 141910Z 1500/1524 03003MPS 5000 BR OVC050 TX09/1507Z TN05/1523Z

4,000以上の空港の気象観測と天気予報(METAR報とTAF報)

利用可能な観測所は地図上に黄色い丸と赤い丸で示す。

丸の上にカーソルを重ねると観測所名を参照できる。

次にクリックすると気象観測と天気予報を参照できる。

マップの切り替え:黒色「×」印の緑ボタンをクリックして拡大、「-」印の緑ボタンをクリックして縮小、緑色の三角印をクリックして隣りの地図に切り替え


METAR-TAF: